Time;durP1;ratioP1;P1;durP2;ratioP2;P2;SDS_P1;SDS_P2;PMS_P1;PMS_P2;Temp;Humidity;BMP_temperature;BMP_pressure;BME280_temperature;BME280_humidity;BME280_pressure;Samples;Min_cycle;Max_cycle;Signal;HPM_P1;HPM_P2
2023/05/06 00:00:18;;;;;;;2.28;2.05;;;;;;;;;;2055735;28;20393;-77
2023/05/06 00:01:38;;;;;;;3.53;2.42;;;;;;;;;;2050778;28;20031;-76
2023/05/06 00:02:58;;;;;;;2.05;1.77;;;;;;;;;;2050027;28;20034;-76
2023/05/06 00:04:18;;;;;;;2.83;1.75;;;;;;;;;;2049226;28;20486;-76
2023/05/06 00:05:37;;;;;;;3.05;1.67;;;;;;;;;;2049017;28;20047;-76
2023/05/06 00:06:56;;;;;;;2.15;1.98;;;;;;;;;;2050101;28;20024;-76
2023/05/06 00:08:15;;;;;;;2.90;2.17;;;;;;;;;;2060371;28;20540;-76
2023/05/06 00:09:34;;;;;;;2.40;1.63;;;;;;;;;;2056038;28;20149;-77
2023/05/06 00:10:53;;;;;;;3.83;1.80;;;;;;;;;;2054066;28;20664;-76
2023/05/06 00:12:12;;;;;;;2.25;1.75;;;;;;;;;;2050291;28;20389;-76
2023/05/06 00:13:32;;;;;;;1.92;1.75;;;;;;;;;;2047914;28;20496;-76
2023/05/06 00:14:51;;;;;;;1.70;1.60;;;;;;;;;;2048541;28;20031;-77
2023/05/06 00:16:10;;;;;;;2.55;2.00;;;;;;;;;;2053838;28;20026;-77
2023/05/06 00:17:32;;;;;;;1.90;1.80;;;;;;;;;;2048710;28;20051;-76
2023/05/06 00:18:51;;;;;;;2.35;1.48;;;;;;;;;;2047899;28;20036;-76
2023/05/06 00:20:10;;;;;;;1.77;1.63;;;;;;;;;;2049999;28;20485;-77
2023/05/06 00:21:29;;;;;;;7.80;2.05;;;;;;;;;;2049033;28;20038;-76
2023/05/06 00:22:48;;;;;;;2.50;1.70;;;;;;;;;;2057015;28;20042;-76
2023/05/06 00:24:07;;;;;;;2.08;1.70;;;;;;;;;;2056956;28;20030;-76
2023/05/06 00:25:26;;;;;;;2.65;1.98;;;;;;;;;;2052111;28;20039;-76
2023/05/06 00:26:45;;;;;;;2.38;1.60;;;;;;;;;;2049423;28;20039;-76
2023/05/06 00:28:03;;;;;;;1.95;1.70;;;;;;;;;;2048463;28;20028;-77
2023/05/06 00:29:22;;;;;;;3.67;1.95;;;;;;;;;;2053849;28;21350;-76
2023/05/06 00:30:41;;;;;;;2.65;1.30;;;;;;;;;;2051118;28;20436;-76
2023/05/06 00:32:00;;;;;;;3.83;1.75;;;;;;;;;;2057753;28;20034;-77
2023/05/06 00:33:19;;;;;;;2.03;1.83;;;;;;;;;;2052555;28;20035;-76
2023/05/06 00:34:38;;;;;;;3.28;2.00;;;;;;;;;;2050717;28;20035;-76
2023/05/06 00:35:57;;;;;;;3.90;1.92;;;;;;;;;;2048742;28;20027;-76
2023/05/06 00:37:16;;;;;;;5.00;2.08;;;;;;;;;;2049656;28;20035;-75
2023/05/06 00:38:35;;;;;;;2.67;1.85;;;;;;;;;;2051319;28;20027;-76
2023/05/06 00:39:55;;;;;;;6.07;2.67;;;;;;;;;;2049854;28;20098;-75
2023/05/06 00:41:14;;;;;;;4.18;2.15;;;;;;;;;;2049352;28;20031;-75
2023/05/06 00:42:33;;;;;;;3.25;1.95;;;;;;;;;;2050521;28;20581;-75
2023/05/06 00:43:52;;;;;;;4.72;2.10;;;;;;;;;;2050228;28;20031;-77
2023/05/06 00:45:11;;;;;;;3.88;1.92;;;;;;;;;;2048548;28;20043;-75
2023/05/06 00:46:30;;;;;;;2.50;2.30;;;;;;;;;;2048529;28;20043;-75
2023/05/06 00:47:49;;;;;;;1.85;1.75;;;;;;;;;;2049854;28;20055;-76
2023/05/06 00:49:10;;;;;;;2.15;1.73;;;;;;;;;;2049568;28;20031;-75
2023/05/06 00:50:31;;;;;;;4.40;1.95;;;;;;;;;;2047090;28;20030;-76
2023/05/06 00:51:51;;;;;;;3.13;2.35;;;;;;;;;;2047317;28;20153;-77
2023/05/06 00:53:10;;;;;;;3.90;2.00;;;;;;;;;;2048661;28;20032;-76
2023/05/06 00:54:29;;;;;;;1.83;1.73;;;;;;;;;;2051928;28;20027;-75
2023/05/06 00:55:50;;;;;;;4.20;2.13;;;;;;;;;;2049243;28;20031;-76
2023/05/06 00:57:09;;;;;;;7.07;2.28;;;;;;;;;;2047439;28;20027;-75
2023/05/06 00:58:28;;;;;;;3.88;2.10;;;;;;;;;;2049307;28;20154;-76
2023/05/06 00:59:47;;;;;;;5.78;1.75;;;;;;;;;;2047429;28;20027;-76
2023/05/06 01:01:05;;;;;;;1.90;1.65;;;;;;;;;;2050746;28;20031;-75
2023/05/06 01:02:24;;;;;;;3.70;2.38;;;;;;;;;;2050228;28;20106;-75
2023/05/06 01:03:43;;;;;;;3.25;2.30;;;;;;;;;;2048990;28;20027;-75
2023/05/06 01:05:02;;;;;;;3.80;2.03;;;;;;;;;;2047863;28;20039;-75
2023/05/06 01:06:22;;;;;;;3.40;2.25;;;;;;;;;;2050137;28;20027;-76
2023/05/06 01:07:43;;;;;;;2.10;1.90;;;;;;;;;;2047756;28;20031;-75
2023/05/06 01:09:02;;;;;;;2.33;2.00;;;;;;;;;;2049985;28;20487;-75
2023/05/06 01:10:40;;;;;;;2.35;2.15;;;;;;;;;;2048531;28;20109;-76
2023/05/06 01:12:16;;;;;;;2.58;2.20;;;;;;;;;;2056004;28;20031;-76
2023/05/06 01:13:37;;;;;;;6.07;2.10;;;;;;;;;;2049723;28;20035;-76
2023/05/06 01:15:19;;;;;;;3.88;2.15;;;;;;;;;;2051449;28;20027;-75
2023/05/06 01:16:40;;;;;;;2.67;1.73;;;;;;;;;;2052799;28;20031;-76
2023/05/06 01:18:01;;;;;;;3.85;2.15;;;;;;;;;;2049494;28;20035;-75
2023/05/06 01:19:40;;;;;;;2.97;2.25;;;;;;;;;;2049151;28;20027;-76
2023/05/06 01:21:00;;;;;;;3.42;2.20;;;;;;;;;;2049629;28;20023;-75
2023/05/06 01:22:22;;;;;;;4.78;2.70;;;;;;;;;;2048866;28;20047;-75
2023/05/06 01:23:50;;;;;;;4.22;2.70;;;;;;;;;;2046286;28;20038;-76
2023/05/06 01:25:20;;;;;;;3.85;2.38;;;;;;;;;;2048918;28;20043;-75
2023/05/06 01:26:41;;;;;;;2.38;2.17;;;;;;;;;;2051306;28;20038;-76
2023/05/06 01:28:00;;;;;;;2.33;1.80;;;;;;;;;;2056266;28;20492;-76
2023/05/06 01:29:19;;;;;;;3.15;2.38;;;;;;;;;;2054820;28;20034;-76
2023/05/06 01:30:45;;;;;;;9.57;2.40;;;;;;;;;;2051573;28;20019;-76
2023/05/06 01:32:39;;;;;;;2.55;2.35;;;;;;;;;;2051430;28;20076;-75
2023/05/06 01:34:08;;;;;;;6.05;2.00;;;;;;;;;;2022366;29;20519;-76
2023/05/06 01:35:33;;;;;;;2.97;2.42;;;;;;;;;;2015406;29;20041;-76
2023/05/06 01:36:57;;;;;;;2.20;2.00;;;;;;;;;;2048361;28;20110;-75
2023/05/06 01:38:22;;;;;;;4.03;2.13;;;;;;;;;;2053351;28;20112;-76
2023/05/06 01:39:42;;;;;;;3.45;2.63;;;;;;;;;;2051649;28;20031;-75
2023/05/06 01:41:01;;;;;;;4.07;2.47;;;;;;;;;;2048498;28;20035;-75
2023/05/06 01:42:22;;;;;;;2.83;2.63;;;;;;;;;;2047914;28;20134;-75
2023/05/06 01:43:43;;;;;;;4.93;2.10;;;;;;;;;;2049947;28;20038;-75
2023/05/06 01:45:03;;;;;;;5.25;2.33;;;;;;;;;;2049763;28;20043;-76
2023/05/06 01:46:23;;;;;;;5.68;2.30;;;;;;;;;;2048371;28;20058;-75
2023/05/06 01:47:43;;;;;;;8.82;2.88;;;;;;;;;;2047668;28;20039;-75
2023/05/06 01:49:04;;;;;;;9.70;2.67;;;;;;;;;;2050119;28;20031;-76
2023/05/06 01:50:23;;;;;;;8.57;2.33;;;;;;;;;;2048147;28;20027;-76
2023/05/06 01:51:49;;;;;;;10.63;2.78;;;;;;;;;;2055082;28;20034;-76
2023/05/06 01:53:08;;;;;;;10.77;3.00;;;;;;;;;;2052218;28;20027;-77
2023/05/06 01:54:27;;;;;;;20.48;3.70;;;;;;;;;;2052624;28;20019;-76
2023/05/06 01:55:47;;;;;;;22.02;3.60;;;;;;;;;;2054373;28;20019;-76
2023/05/06 01:57:06;;;;;;;12.50;2.85;;;;;;;;;;2058945;28;20016;-77
2023/05/06 01:58:25;;;;;;;14.05;2.95;;;;;;;;;;2059247;28;20066;-76
2023/05/06 01:59:44;;;;;;;10.65;2.67;;;;;;;;;;2059797;28;20023;-77
2023/05/06 02:01:03;;;;;;;14.77;3.60;;;;;;;;;;2058921;28;20066;-76
2023/05/06 02:02:23;;;;;;;15.77;3.65;;;;;;;;;;2064002;28;20030;-76
2023/05/06 02:03:42;;;;;;;14.00;2.95;;;;;;;;;;2058758;28;20043;-77
2023/05/06 02:05:01;;;;;;;9.20;3.35;;;;;;;;;;2058712;28;20059;-77
2023/05/06 02:06:20;;;;;;;9.55;3.35;;;;;;;;;;2052278;28;20032;-76
2023/05/06 02:07:39;;;;;;;7.78;3.50;;;;;;;;;;2054644;28;20031;-75
2023/05/06 02:08:58;;;;;;;9.52;3.00;;;;;;;;;;2057321;28;20083;-76
2023/05/06 02:10:18;;;;;;;13.35;3.08;;;;;;;;;;2052619;28;20031;-76
2023/05/06 02:11:37;;;;;;;15.32;3.08;;;;;;;;;;2048336;28;20027;-76
2023/05/06 02:12:56;;;;;;;6.60;2.92;;;;;;;;;;2050767;28;20015;-77
2023/05/06 02:14:15;;;;;;;6.88;3.00;;;;;;;;;;2050331;28;20043;-77
2023/05/06 02:15:34;;;;;;;8.20;3.05;;;;;;;;;;2049350;28;20446;-75
2023/05/06 02:16:54;;;;;;;7.15;3.38;;;;;;;;;;2049687;28;20035;-76
2023/05/06 02:18:13;;;;;;;10.48;2.70;;;;;;;;;;2048327;28;20110;-76
2023/05/06 02:19:32;;;;;;;16.50;3.30;;;;;;;;;;2045252;28;20046;-76
2023/05/06 02:20:50;;;;;;;10.75;3.00;;;;;;;;;;2055782;28;20031;-75
2023/05/06 02:22:10;;;;;;;11.55;3.10;;;;;;;;;;2051566;28;20436;-76
2023/05/06 02:23:29;;;;;;;7.05;2.38;;;;;;;;;;2057293;28;20031;-76
2023/05/06 02:24:48;;;;;;;4.97;2.50;;;;;;;;;;2052612;28;20114;-76
2023/05/06 02:26:07;;;;;;;7.28;2.60;;;;;;;;;;2057368;28;20019;-75
2023/05/06 02:27:26;;;;;;;8.80;3.35;;;;;;;;;;2051914;28;20027;-75
2023/05/06 02:28:45;;;;;;;5.10;2.65;;;;;;;;;;2050557;28;20023;-76
2023/05/06 02:30:05;;;;;;;8.82;3.22;;;;;;;;;;2046518;28;20393;-76
2023/05/06 02:31:24;;;;;;;5.07;2.80;;;;;;;;;;2048044;28;20024;-75
2023/05/06 02:32:43;;;;;;;7.72;3.38;;;;;;;;;;2049102;28;20024;-75
2023/05/06 02:34:01;;;;;;;6.35;3.30;;;;;;;;;;2049271;28;20028;-75
2023/05/06 02:35:20;;;;;;;5.15;2.85;;;;;;;;;;2047978;28;20071;-75
2023/05/06 02:36:39;;;;;;;7.90;3.20;;;;;;;;;;2048559;28;20043;-76
2023/05/06 02:37:58;;;;;;;16.50;4.22;;;;;;;;;;2048553;28;20453;-75
2023/05/06 02:39:17;;;;;;;11.38;3.00;;;;;;;;;;2046640;28;20031;-76
2023/05/06 02:40:36;;;;;;;7.13;3.30;;;;;;;;;;2052937;28;20113;-76
2023/05/06 02:41:55;;;;;;;22.60;3.72;;;;;;;;;;2046817;28;20567;-75
2023/05/06 02:43:14;;;;;;;29.15;4.63;;;;;;;;;;2049164;28;20121;-77
2023/05/06 02:44:33;;;;;;;31.40;4.72;;;;;;;;;;2049238;28;20035;-75
2023/05/06 02:45:52;;;;;;;25.83;4.32;;;;;;;;;;2044835;28;20035;-77
2023/05/06 02:47:11;;;;;;;16.65;3.83;;;;;;;;;;2047650;28;20027;-74
2023/05/06 02:48:30;;;;;;;24.27;4.35;;;;;;;;;;2050341;28;20027;-75
2023/05/06 02:49:49;;;;;;;23.05;4.60;;;;;;;;;;2050380;28;20039;-75
2023/05/06 02:51:08;;;;;;;15.02;4.35;;;;;;;;;;2049721;28;20500;-75
2023/05/06 02:52:27;;;;;;;19.92;4.13;;;;;;;;;;2050037;28;20054;-75
2023/05/06 02:53:46;;;;;;;28.13;3.42;;;;;;;;;;2057573;28;20110;-75
2023/05/06 02:55:06;;;;;;;12.55;4.30;;;;;;;;;;2054038;28;20612;-75
2023/05/06 02:56:25;;;;;;;17.73;3.63;;;;;;;;;;2049933;28;20038;-76
2023/05/06 02:57:43;;;;;;;12.27;3.63;;;;;;;;;;2058502;28;20030;-76
2023/05/06 02:59:02;;;;;;;15.38;4.15;;;;;;;;;;2057153;28;20455;-75
2023/05/06 03:00:21;;;;;;;15.80;3.83;;;;;;;;;;2052080;28;20047;-75
2023/05/06 03:01:40;;;;;;;20.00;3.75;;;;;;;;;;2057944;28;20043;-74
2023/05/06 03:02:59;;;;;;;9.90;3.47;;;;;;;;;;2052258;28;20039;-76
2023/05/06 03:04:18;;;;;;;10.57;3.20;;;;;;;;;;2051829;28;20034;-75
2023/05/06 03:05:37;;;;;;;10.50;3.50;;;;;;;;;;2057008;28;20109;-75
2023/05/06 03:06:56;;;;;;;9.70;3.67;;;;;;;;;;2053101;28;20110;-76
2023/05/06 03:08:15;;;;;;;12.93;3.72;;;;;;;;;;2051462;28;20027;-75
2023/05/06 03:09:35;;;;;;;18.58;4.40;;;;;;;;;;2051903;28;20035;-75
2023/05/06 03:10:53;;;;;;;11.93;3.28;;;;;;;;;;2051094;28;20107;-76
2023/05/06 03:12:12;;;;;;;7.53;3.53;;;;;;;;;;2050730;28;20031;-75
2023/05/06 03:13:32;;;;;;;7.72;3.33;;;;;;;;;;2042337;28;20050;-75
2023/05/06 03:14:50;;;;;;;8.98;3.45;;;;;;;;;;2046121;28;20027;-75
2023/05/06 03:16:16;;;;;;;17.00;3.42;;;;;;;;;;2051462;28;20032;-75
2023/05/06 03:17:34;;;;;;;10.75;3.90;;;;;;;;;;2051457;28;20035;-75
2023/05/06 03:18:53;;;;;;;9.82;3.92;;;;;;;;;;2058548;28;20569;-75
2023/05/06 03:20:12;;;;;;;11.25;3.47;;;;;;;;;;2052476;28;20106;-75
2023/05/06 03:21:31;;;;;;;11.52;3.28;;;;;;;;;;2051014;28;20106;-75
2023/05/06 03:22:50;;;;;;;7.80;3.22;;;;;;;;;;2052330;28;20130;-75
2023/05/06 03:24:10;;;;;;;11.90;3.72;;;;;;;;;;2050473;28;20035;-76
2023/05/06 03:25:29;;;;;;;9.55;3.45;;;;;;;;;;2050984;28;20031;-75
2023/05/06 03:26:48;;;;;;;8.18;3.60;;;;;;;;;;2049284;28;20438;-75
2023/05/06 03:28:07;;;;;;;5.32;4.10;;;;;;;;;;2058540;28;20090;-76
2023/05/06 03:29:26;;;;;;;9.35;4.40;;;;;;;;;;2051702;28;20039;-76
2023/05/06 03:30:45;;;;;;;13.77;4.10;;;;;;;;;;2058501;28;20102;-75
2023/05/06 03:32:04;;;;;;;17.17;4.28;;;;;;;;;;2052849;28;20114;-75
2023/05/06 03:33:23;;;;;;;14.63;4.72;;;;;;;;;;2049291;28;20081;-75
2023/05/06 03:34:42;;;;;;;10.50;3.97;;;;;;;;;;2057258;28;20066;-75
2023/05/06 03:36:01;;;;;;;5.43;3.58;;;;;;;;;;2055113;28;20018;-76
2023/05/06 03:37:20;;;;;;;11.05;3.97;;;;;;;;;;2049859;28;20454;-75
2023/05/06 03:38:39;;;;;;;10.02;3.88;;;;;;;;;;2046574;28;20039;-77
2023/05/06 03:39:59;;;;;;;11.98;3.80;;;;;;;;;;2050616;28;20028;-75
2023/05/06 03:41:18;;;;;;;14.93;4.72;;;;;;;;;;2055781;28;20034;-76
2023/05/06 03:42:37;;;;;;;11.13;4.05;;;;;;;;;;2052949;28;20027;-75
2023/05/06 03:43:56;;;;;;;10.27;3.58;;;;;;;;;;2057034;28;20026;-75
2023/05/06 03:45:15;;;;;;;12.23;4.38;;;;;;;;;;2051665;28;20043;-76
2023/05/06 03:46:34;;;;;;;7.57;3.92;;;;;;;;;;2047595;28;20035;-76
2023/05/06 03:47:53;;;;;;;8.32;3.90;;;;;;;;;;2049708;28;20664;-75
2023/05/06 03:49:12;;;;;;;10.05;4.13;;;;;;;;;;2051582;28;20031;-75
2023/05/06 03:50:32;;;;;;;8.10;4.07;;;;;;;;;;2050244;28;20030;-75
2023/05/06 03:51:52;;;;;;;6.78;4.22;;;;;;;;;;2048089;28;20031;-76
2023/05/06 03:53:11;;;;;;;11.45;3.80;;;;;;;;;;2047825;28;20106;-76
2023/05/06 03:54:30;;;;;;;8.15;3.80;;;;;;;;;;2050099;28;20484;-75
2023/05/06 03:55:49;;;;;;;4.82;3.65;;;;;;;;;;2050604;28;20524;-76
2023/05/06 03:57:08;;;;;;;11.63;4.18;;;;;;;;;;2046604;28;20106;-77
2023/05/06 03:58:26;;;;;;;5.70;3.22;;;;;;;;;;2052205;28;20035;-76
2023/05/06 03:59:45;;;;;;;9.63;3.67;;;;;;;;;;2049056;28;20516;-76
2023/05/06 04:01:04;;;;;;;6.85;3.83;;;;;;;;;;2049598;28;20031;-77
2023/05/06 04:02:23;;;;;;;6.80;4.18;;;;;;;;;;2047936;28;20032;-76
2023/05/06 04:03:43;;;;;;;5.60;4.03;;;;;;;;;;2049326;28;20035;-76
2023/05/06 04:05:02;;;;;;;7.10;3.95;;;;;;;;;;2051359;28;20027;-76
2023/05/06 04:06:21;;;;;;;4.85;3.85;;;;;;;;;;2050201;28;20031;-76
2023/05/06 04:07:40;;;;;;;9.93;3.85;;;;;;;;;;2048948;28;20028;-77
2023/05/06 04:08:59;;;;;;;11.25;4.00;;;;;;;;;;2058794;28;20508;-76
2023/05/06 04:10:18;;;;;;;5.07;3.38;;;;;;;;;;2053229;28;20070;-76
2023/05/06 04:11:37;;;;;;;4.30;3.80;;;;;;;;;;2049606;28;20023;-77
2023/05/06 04:12:56;;;;;;;5.70;3.75;;;;;;;;;;2050332;28;20032;-76
2023/05/06 04:14:15;;;;;;;6.05;3.70;;;;;;;;;;2051038;28;20062;-76
2023/05/06 04:15:35;;;;;;;4.57;3.58;;;;;;;;;;2048908;28;20039;-76
2023/05/06 04:16:54;;;;;;;5.65;3.88;;;;;;;;;;2049869;28;20030;-77
2023/05/06 04:18:17;;;;;;;5.18;4.43;;;;;;;;;;2057152;28;20030;-77
2023/05/06 04:19:37;;;;;;;6.95;3.67;;;;;;;;;;2051582;28;20035;-76
2023/05/06 04:20:59;;;;;;;5.20;3.90;;;;;;;;;;2056014;28;20026;-76
2023/05/06 04:22:18;;;;;;;8.10;3.38;;;;;;;;;;2050818;28;20080;-75
2023/05/06 04:23:37;;;;;;;5.20;3.70;;;;;;;;;;2046894;28;20114;-76
2023/05/06 04:24:56;;;;;;;10.60;3.90;;;;;;;;;;2051148;28;20424;-75
2023/05/06 04:26:16;;;;;;;10.43;3.65;;;;;;;;;;2049063;28;20054;-76
2023/05/06 04:27:34;;;;;;;11.23;4.40;;;;;;;;;;2055596;28;20464;-76
2023/05/06 04:28:54;;;;;;;8.25;3.70;;;;;;;;;;2055219;28;20097;-75
2023/05/06 04:30:13;;;;;;;9.32;3.95;;;;;;;;;;2051270;28;20027;-76
2023/05/06 04:31:33;;;;;;;8.02;3.47;;;;;;;;;;2050298;28;20409;-76
2023/05/06 04:32:52;;;;;;;7.50;4.03;;;;;;;;;;2051587;28;20027;-76
2023/05/06 04:34:11;;;;;;;7.88;3.80;;;;;;;;;;2049916;28;20027;-77
2023/05/06 04:35:30;;;;;;;9.80;3.92;;;;;;;;;;2050553;28;20032;-76
2023/05/06 04:36:49;;;;;;;5.35;3.92;;;;;;;;;;2047214;28;20065;-76
2023/05/06 04:38:08;;;;;;;8.75;4.28;;;;;;;;;;2046863;28;20026;-76
2023/05/06 04:39:28;;;;;;;9.30;4.60;;;;;;;;;;2049264;28;20035;-74
2023/05/06 04:40:47;;;;;;;7.95;4.30;;;;;;;;;;2051564;28;20034;-75
2023/05/06 04:42:06;;;;;;;5.07;3.85;;;;;;;;;;2045596;28;20039;-75
2023/05/06 04:43:28;;;;;;;7.88;4.15;;;;;;;;;;2048553;28;20032;-76
2023/05/06 04:44:48;;;;;;;7.15;3.92;;;;;;;;;;2052797;28;20420;-75
2023/05/06 04:46:07;;;;;;;4.68;3.70;;;;;;;;;;2049271;28;20031;-75
2023/05/06 04:47:26;;;;;;;10.95;3.63;;;;;;;;;;2050065;28;20131;-75
2023/05/06 04:48:45;;;;;;;5.40;3.35;;;;;;;;;;2059261;28;20023;-75
2023/05/06 04:50:04;;;;;;;6.82;3.53;;;;;;;;;;2046334;28;20031;-75
2023/05/06 04:51:23;;;;;;;5.40;3.53;;;;;;;;;;2048114;28;20031;-76
2023/05/06 04:52:42;;;;;;;3.75;3.40;;;;;;;;;;2047925;28;20063;-76
2023/05/06 04:54:01;;;;;;;10.27;3.30;;;;;;;;;;2049963;28;20397;-75
2023/05/06 04:55:20;;;;;;;9.57;3.85;;;;;;;;;;2049752;28;20110;-75
2023/05/06 04:56:39;;;;;;;6.78;3.50;;;;;;;;;;2051673;28;20035;-75
2023/05/06 04:57:58;;;;;;;10.70;3.88;;;;;;;;;;2049202;28;20019;-75
2023/05/06 04:59:17;;;;;;;6.10;3.50;;;;;;;;;;2050754;28;20035;-76
2023/05/06 05:00:37;;;;;;;6.00;3.30;;;;;;;;;;2047584;28;20027;-76
2023/05/06 05:01:56;;;;;;;6.47;3.42;;;;;;;;;;2049458;28;20047;-77
2023/05/06 05:03:15;;;;;;;3.47;3.17;;;;;;;;;;2050432;28;20039;-75
2023/05/06 05:04:35;;;;;;;4.70;2.90;;;;;;;;;;2048364;28;20412;-75
2023/05/06 05:05:54;;;;;;;5.53;2.58;;;;;;;;;;2046851;28;20043;-75
2023/05/06 05:07:13;;;;;;;4.57;2.85;;;;;;;;;;2049017;28;20024;-75
2023/05/06 05:08:32;;;;;;;4.35;3.17;;;;;;;;;;2059292;28;20034;-76
2023/05/06 05:09:51;;;;;;;5.93;2.47;;;;;;;;;;2051476;28;20022;-78
2023/05/06 05:11:10;;;;;;;3.67;2.58;;;;;;;;;;2056065;28;20243;-75
2023/05/06 05:12:29;;;;;;;3.97;2.95;;;;;;;;;;2052775;28;20035;-76
2023/05/06 05:13:49;;;;;;;4.57;2.40;;;;;;;;;;2049223;28;20035;-77
2023/05/06 05:15:08;;;;;;;5.25;2.55;;;;;;;;;;2049328;28;20492;-75
2023/05/06 05:16:27;;;;;;;3.47;2.33;;;;;;;;;;2050315;28;20444;-75
2023/05/06 05:17:46;;;;;;;3.17;2.45;;;;;;;;;;2048116;28;20031;-75
2023/05/06 05:19:05;;;;;;;3.00;2.63;;;;;;;;;;2049031;28;20039;-76
2023/05/06 05:20:24;;;;;;;4.97;2.50;;;;;;;;;;2050261;28;20035;-75
2023/05/06 05:21:43;;;;;;;3.42;2.42;;;;;;;;;;2047190;28;20043;-75
2023/05/06 05:23:02;;;;;;;3.83;2.22;;;;;;;;;;2050951;28;20039;-74
2023/05/06 05:24:21;;;;;;;6.07;2.03;;;;;;;;;;2049252;28;20035;-74
2023/05/06 05:25:40;;;;;;;3.55;1.83;;;;;;;;;;2050534;28;20032;-74
2023/05/06 05:26:59;;;;;;;1.20;1.20;;;;;;;;;;2049339;28;20034;-75
2023/05/06 05:28:18;;;;;;;1.30;1.20;;;;;;;;;;2050573;28;20035;-74
2023/05/06 05:29:37;;;;;;;1.75;0.88;;;;;;;;;;2047880;28;20205;-74
2023/05/06 05:31:00;;;;;;;1.15;0.82;;;;;;;;;;2047561;28;20031;-74
2023/05/06 05:32:20;;;;;;;3.90;1.17;;;;;;;;;;2050904;28;20028;-75
2023/05/06 05:33:39;;;;;;;2.95;1.25;;;;;;;;;;2050155;28;20110;-75
2023/05/06 05:34:58;;;;;;;1.08;1.08;;;;;;;;;;2049611;28;20028;-74
2023/05/06 05:36:18;;;;;;;1.55;1.30;;;;;;;;;;2050864;28;20484;-74
2023/05/06 05:37:37;;;;;;;1.60;1.17;;;;;;;;;;2047598;28;20039;-77
2023/05/06 05:38:56;;;;;;;0.85;0.85;;;;;;;;;;2050597;28;20027;-75
2023/05/06 05:40:15;;;;;;;3.08;1.05;;;;;;;;;;2049074;28;20026;-76
2023/05/06 05:41:34;;;;;;;2.55;1.10;;;;;;;;;;2057096;28;20384;-75
2023/05/06 05:42:53;;;;;;;1.10;1.10;;;;;;;;;;2053787;28;20131;-75
2023/05/06 05:44:12;;;;;;;0.93;0.90;;;;;;;;;;2051506;28;20039;-75
2023/05/06 05:45:31;;;;;;;1.00;0.90;;;;;;;;;;2049410;28;20149;-75
2023/05/06 05:46:50;;;;;;;1.00;0.95;;;;;;;;;;2046297;28;20941;-76
2023/05/06 05:48:09;;;;;;;1.85;0.90;;;;;;;;;;2051299;28;20023;-74
2023/05/06 05:49:28;;;;;;;3.20;1.27;;;;;;;;;;2052515;28;20114;-74
2023/05/06 05:50:47;;;;;;;1.73;1.08;;;;;;;;;;2058753;28;20467;-73
2023/05/06 05:52:07;;;;;;;1.42;1.17;;;;;;;;;;2052552;28;20034;-74
2023/05/06 05:53:26;;;;;;;2.15;1.02;;;;;;;;;;2056924;28;20026;-73
2023/05/06 05:54:45;;;;;;;1.23;1.05;;;;;;;;;;2044748;28;20036;-74
2023/05/06 05:56:07;;;;;;;2.00;1.10;;;;;;;;;;2049173;28;20035;-76
2023/05/06 05:57:26;;;;;;;1.35;0.80;;;;;;;;;;2048317;28;20445;-75
2023/05/06 05:58:46;;;;;;;1.27;1.10;;;;;;;;;;2054984;28;20052;-75
2023/05/06 06:00:05;;;;;;;1.80;1.38;;;;;;;;;;2051095;28;20401;-76
2023/05/06 06:01:24;;;;;;;1.23;1.10;;;;;;;;;;2048003;28;20034;-77
2023/05/06 06:02:43;;;;;;;2.13;1.02;;;;;;;;;;2049010;28;20109;-75
2023/05/06 06:04:02;;;;;;;6.00;1.20;;;;;;;;;;2047544;28;20412;-75
2023/05/06 06:05:21;;;;;;;1.58;1.23;;;;;;;;;;2046017;28;20049;-75
2023/05/06 06:06:40;;;;;;;2.15;0.65;;;;;;;;;;2051494;28;20027;-75
2023/05/06 06:07:59;;;;;;;1.08;0.90;;;;;;;;;;2047384;28;20044;-76
2023/05/06 06:09:18;;;;;;;1.55;1.00;;;;;;;;;;2056427;28;20023;-78
2023/05/06 06:10:37;;;;;;;1.23;0.80;;;;;;;;;;2056868;28;20027;-79
2023/05/06 06:11:56;;;;;;;1.80;1.10;;;;;;;;;;2062318;28;20034;-77
2023/05/06 06:13:15;;;;;;;0.90;0.90;;;;;;;;;;2060997;28;20042;-76
2023/05/06 06:14:34;;;;;;;0.98;0.93;;;;;;;;;;2059106;28;20031;-74
2023/05/06 06:15:54;;;;;;;1.38;1.00;;;;;;;;;;2057073;28;20023;-75
2023/05/06 06:17:14;;;;;;;1.48;1.02;;;;;;;;;;2056669;28;20054;-74
2023/05/06 06:18:33;;;;;;;8.30;1.20;;;;;;;;;;2058179;28;20039;-75
2023/05/06 06:19:55;;;;;;;2.10;0.77;;;;;;;;;;2057784;28;20063;-73
2023/05/06 06:21:15;;;;;;;1.27;1.15;;;;;;;;;;2054775;28;20031;-77
2023/05/06 06:22:34;;;;;;;3.22;1.13;;;;;;;;;;2050029;28;20055;-73
2023/05/06 06:23:53;;;;;;;1.00;1.00;;;;;;;;;;2049105;28;20032;-72
2023/05/06 06:25:12;;;;;;;1.95;0.93;;;;;;;;;;2050799;28;20023;-74
2023/05/06 06:26:31;;;;;;;2.60;1.15;;;;;;;;;;2053250;28;20019;-76
2023/05/06 06:27:50;;;;;;;1.10;1.00;;;;;;;;;;2047540;28;20027;-76
2023/05/06 06:29:09;;;;;;;2.67;1.02;;;;;;;;;;2052329;28;20409;-77
2023/05/06 06:30:28;;;;;;;1.70;1.10;;;;;;;;;;2049911;28;20477;-75
2023/05/06 06:31:47;;;;;;;1.52;1.08;;;;;;;;;;2060298;28;20042;-75
2023/05/06 06:33:06;;;;;;;1.40;0.93;;;;;;;;;;2053449;28;20500;-75
2023/05/06 06:34:25;;;;;;;1.08;1.02;;;;;;;;;;2058097;28;20081;-74
2023/05/06 06:35:44;;;;;;;4.28;1.20;;;;;;;;;;2054541;28;20039;-77
2023/05/06 06:37:03;;;;;;;1.10;1.00;;;;;;;;;;2049045;28;20446;-78
2023/05/06 06:38:22;;;;;;;6.97;1.58;;;;;;;;;;2051654;28;20513;-74
2023/05/06 06:39:41;;;;;;;1.35;1.05;;;;;;;;;;2058430;28;20047;-77
2023/05/06 06:41:00;;;;;;;2.70;1.17;;;;;;;;;;2050404;28;20075;-77
2023/05/06 06:42:19;;;;;;;2.22;1.20;;;;;;;;;;2051703;28;20020;-75
2023/05/06 06:43:39;;;;;;;0.93;0.93;;;;;;;;;;2046751;28;20682;-74
2023/05/06 06:44:58;;;;;;;0.82;0.82;;;;;;;;;;2050394;28;20106;-75
2023/05/06 06:46:17;;;;;;;2.30;1.30;;;;;;;;;;2043290;28;20027;-74
2023/05/06 06:47:36;;;;;;;2.08;1.00;;;;;;;;;;2047782;28;20027;-75
2023/05/06 06:48:55;;;;;;;1.35;1.20;;;;;;;;;;2048320;28;20023;-75
2023/05/06 06:50:14;;;;;;;2.38;1.17;;;;;;;;;;2057506;28;20125;-76
2023/05/06 06:51:33;;;;;;;2.38;1.30;;;;;;;;;;2050469;28;20035;-75
2023/05/06 06:52:51;;;;;;;1.00;1.00;;;;;;;;;;2048799;28;20027;-76
2023/05/06 06:54:10;;;;;;;4.88;1.30;;;;;;;;;;2048815;28;20031;-74
2023/05/06 06:55:29;;;;;;;1.10;1.00;;;;;;;;;;2049275;28;20493;-75
2023/05/06 06:56:48;;;;;;;3.65;1.42;;;;;;;;;;2049200;28;20527;-75
2023/05/06 06:58:07;;;;;;;2.30;1.45;;;;;;;;;;2044218;28;20039;-76
2023/05/06 06:59:26;;;;;;;1.00;0.80;;;;;;;;;;2049133;28;20027;-74
2023/05/06 07:00:45;;;;;;;1.73;1.17;;;;;;;;;;2056723;28;20474;-74
2023/05/06 07:02:04;;;;;;;1.45;1.00;;;;;;;;;;2052004;28;20058;-75
2023/05/06 07:03:25;;;;;;;0.98;0.88;;;;;;;;;;2050234;28;20063;-74
2023/05/06 07:04:44;;;;;;;0.80;0.80;;;;;;;;;;2050139;28;20894;-74
2023/05/06 07:06:03;;;;;;;1.02;1.00;;;;;;;;;;2047997;28;20126;-73
2023/05/06 07:07:22;;;;;;;1.27;1.00;;;;;;;;;;2051402;28;20035;-75
2023/05/06 07:08:41;;;;;;;2.30;0.90;;;;;;;;;;2048697;28;20106;-76
2023/05/06 07:10:00;;;;;;;1.65;1.40;;;;;;;;;;2048546;28;20035;-74
2023/05/06 07:11:20;;;;;;;1.27;1.08;;;;;;;;;;2050475;28;20090;-75
2023/05/06 07:12:39;;;;;;;4.05;1.20;;;;;;;;;;2046886;28;20032;-77
2023/05/06 07:13:57;;;;;;;1.25;0.90;;;;;;;;;;2048937;28;20035;-74
2023/05/06 07:15:16;;;;;;;1.17;1.00;;;;;;;;;;2047436;28;20931;-76
2023/05/06 07:16:35;;;;;;;0.90;0.90;;;;;;;;;;2051125;28;20024;-73
2023/05/06 07:17:54;;;;;;;1.08;0.80;;;;;;;;;;2056080;28;20043;-73
2023/05/06 07:19:14;;;;;;;1.20;0.70;;;;;;;;;;2045811;28;20063;-76
2023/05/06 07:20:33;;;;;;;3.08;0.90;;;;;;;;;;2047867;28;20035;-74
2023/05/06 07:21:52;;;;;;;0.85;0.70;;;;;;;;;;2049776;28;20023;-74
2023/05/06 07:23:11;;;;;;;1.63;0.90;;;;;;;;;;2049445;28;20051;-74
2023/05/06 07:24:30;;;;;;;0.93;0.80;;;;;;;;;;2049789;28;20023;-72
2023/05/06 07:25:49;;;;;;;0.98;0.88;;;;;;;;;;2046154;28;20022;-74
2023/05/06 07:27:08;;;;;;;0.95;0.85;;;;;;;;;;2049994;28;20587;-74
2023/05/06 07:28:27;;;;;;;1.10;1.00;;;;;;;;;;2051768;28;20484;-74
2023/05/06 07:29:46;;;;;;;1.25;1.15;;;;;;;;;;2049862;28;20031;-75
2023/05/06 07:31:04;;;;;;;1.00;0.90;;;;;;;;;;2051971;28;20035;-76
2023/05/06 07:32:23;;;;;;;2.67;0.90;;;;;;;;;;2052607;28;20105;-75
2023/05/06 07:33:42;;;;;;;1.45;0.90;;;;;;;;;;2057865;28;20026;-75
2023/05/06 07:35:02;;;;;;;1.88;1.08;;;;;;;;;;2051636;28;20018;-75
2023/05/06 07:36:21;;;;;;;0.77;0.75;;;;;;;;;;2052036;28;20027;-75
2023/05/06 07:37:40;;;;;;;1.00;0.80;;;;;;;;;;2049812;28;20298;-75
2023/05/06 07:38:59;;;;;;;2.85;1.15;;;;;;;;;;2049367;28;20063;-76
2023/05/06 07:40:19;;;;;;;1.70;0.90;;;;;;;;;;2049669;28;20501;-75
2023/05/06 07:41:37;;;;;;;1.10;0.90;;;;;;;;;;2049641;28;20044;-74
2023/05/06 07:42:56;;;;;;;1.08;1.00;;;;;;;;;;2058036;28;20097;-75
2023/05/06 07:44:15;;;;;;;1.00;0.88;;;;;;;;;;2049802;28;20023;-75
2023/05/06 07:45:34;;;;;;;0.95;0.75;;;;;;;;;;2049771;28;20043;-75
2023/05/06 07:46:53;;;;;;;1.45;0.85;;;;;;;;;;2050367;28;20035;-77
2023/05/06 07:48:12;;;;;;;1.15;1.05;;;;;;;;;;2050385;28;20146;-76
2023/05/06 07:49:33;;;;;;;0.75;0.75;;;;;;;;;;2057449;28;20038;-74
2023/05/06 07:50:52;;;;;;;1.30;1.20;;;;;;;;;;2052942;28;20066;-77
2023/05/06 07:52:11;;;;;;;2.25;0.98;;;;;;;;;;2048392;28;20411;-77
2023/05/06 07:53:30;;;;;;;1.85;1.08;;;;;;;;;;2051702;28;20027;-77
2023/05/06 07:54:49;;;;;;;1.80;1.38;;;;;;;;;;2051497;28;20500;-76
2023/05/06 07:56:09;;;;;;;1.27;1.02;;;;;;;;;;2051530;28;20539;-76